createdAt,value
2024-02-19T00:05:24.551Z,51.85
2024-02-19T00:10:54.656Z,48.47
2024-02-19T00:13:39.859Z,46.20
2024-02-19T00:16:24.982Z,48.50
2024-02-19T00:19:10.813Z,50.42
2024-02-19T00:21:55.589Z,54.35
2024-02-19T00:24:40.736Z,49.20
2024-02-19T00:27:26.476Z,47.97
2024-02-19T00:30:12.168Z,51.92
2024-02-19T00:32:57.489Z,55.08
2024-02-19T00:35:42.164Z,47.75
2024-02-19T00:38:27.065Z,47.90
2024-02-19T00:41:12.890Z,46.35
2024-02-19T00:43:57.652Z,53.78
2024-02-19T00:46:42.694Z,49.20
2024-02-19T00:49:28.037Z,39.47
2024-02-19T00:52:13.203Z,39.70
2024-02-19T00:54:58.398Z,34.97
2024-02-19T00:57:43.473Z,34.83
2024-02-19T01:00:28.622Z,31.50
2024-02-19T01:03:13.905Z,34.40
2024-02-19T01:05:59.166Z,30.75
2024-02-19T01:08:43.902Z,36.17
2024-02-19T01:11:28.991Z,32.20
2024-02-19T01:14:13.854Z,31.35
2024-02-19T01:16:58.815Z,31.85
2024-02-19T01:19:45.493Z,30.52
2024-02-19T01:22:30.735Z,30.35
2024-02-19T01:25:15.818Z,26.63
2024-02-19T01:28:00.789Z,28.52
2024-02-19T01:30:45.937Z,23.88
2024-02-19T01:33:31.540Z,26.83
2024-02-19T01:36:16.693Z,16.85
2024-02-19T01:39:02.122Z,21.35
2024-02-19T01:41:47.160Z,12.98
2024-02-19T01:44:32.354Z,14.43
2024-02-19T01:47:18.529Z,12.20
2024-02-19T01:50:04.415Z,11.38
2024-02-19T01:52:51.496Z,13.27
2024-02-19T01:55:38.288Z,10.68
2024-02-19T01:58:23.550Z,11.32
2024-02-19T02:01:08.636Z,9.80
2024-02-19T02:03:55.031Z,10.27
2024-02-19T02:06:40.442Z,10.70
2024-02-19T02:09:25.519Z,10.57
2024-02-19T02:12:12.058Z,9.05
2024-02-19T02:14:57.196Z,7.68
2024-02-19T02:17:44.247Z,12.32
2024-02-19T02:20:30.904Z,10.48
2024-02-19T02:23:16.575Z,12.43
2024-02-19T02:26:01.435Z,11.52
2024-02-19T02:31:32.550Z,8.45
2024-02-19T02:34:17.696Z,8.23
2024-02-19T02:37:03.057Z,8.77
2024-02-19T02:39:47.858Z,9.43
2024-02-19T02:42:33.799Z,6.90
2024-02-19T02:45:18.885Z,8.77
2024-02-19T02:50:48.938Z,5.53
2024-02-19T02:53:34.092Z,8.98
2024-02-19T02:56:22.687Z,7.00
2024-02-19T02:59:07.468Z,7.68
2024-02-19T03:01:52.723Z,8.38
2024-02-19T03:04:37.579Z,6.15
2024-02-19T03:07:25.219Z,9.52
2024-02-19T03:10:11.876Z,9.15
2024-02-19T03:12:56.911Z,10.32
2024-02-19T03:15:42.021Z,7.85
2024-02-19T03:18:27.421Z,8.60
2024-02-19T03:21:15.988Z,7.53
2024-02-19T03:24:00.817Z,8.45
2024-02-19T03:26:45.754Z,7.82
2024-02-19T03:29:30.876Z,9.68
2024-02-19T03:32:15.774Z,6.55
2024-02-19T03:35:00.948Z,7.25
2024-02-19T03:37:46.943Z,8.13
2024-02-19T03:40:31.504Z,13.43
2024-02-19T03:43:17.708Z,8.70
2024-02-19T03:46:04.835Z,7.55
2024-02-19T03:48:49.881Z,9.90
2024-02-19T03:51:34.771Z,9.70
2024-02-19T03:54:19.680Z,9.65
2024-02-19T03:57:05.243Z,10.30
2024-02-19T03:59:50.554Z,8.00
2024-02-19T04:02:35.663Z,7.90
2024-02-19T04:05:20.680Z,8.93
2024-02-19T04:08:07.299Z,7.40
2024-02-19T04:10:53.765Z,15.68
2024-02-19T04:13:38.719Z,13.57
2024-02-19T04:16:23.458Z,19.75
2024-02-19T04:19:09.290Z,20.20
2024-02-19T04:21:54.429Z,12.00
2024-02-19T04:24:39.854Z,10.50
2024-02-19T04:27:24.674Z,12.02
2024-02-19T04:30:09.849Z,9.85
2024-02-19T04:32:54.572Z,13.10
2024-02-19T04:35:39.529Z,12.65
2024-02-19T04:38:24.574Z,12.18
2024-02-19T04:41:09.217Z,6.90
2024-02-19T04:43:54.213Z,9.85
2024-02-19T04:46:39.638Z,9.82
2024-02-19T04:49:24.770Z,12.25
2024-02-19T04:52:09.672Z,9.35
2024-02-19T04:54:54.571Z,9.35
2024-02-19T04:57:40.634Z,10.35
2024-02-19T05:00:26.770Z,10.35
2024-02-19T05:03:13.027Z,8.25
2024-02-19T05:05:59.634Z,6.85
2024-02-19T05:08:44.992Z,10.32
2024-02-19T05:11:31.009Z,8.35
2024-02-19T05:14:15.883Z,11.10
2024-02-19T05:17:01.145Z,9.25
2024-02-19T05:19:47.029Z,7.32
2024-02-19T05:22:32.244Z,7.20
2024-02-19T05:25:18.602Z,5.60
2024-02-19T05:28:03.922Z,6.32
2024-02-19T05:30:49.271Z,7.28
2024-02-19T05:33:33.942Z,7.22
2024-02-19T05:36:19.003Z,9.95
2024-02-19T05:39:04.988Z,6.97
2024-02-19T05:41:49.828Z,9.85
2024-02-19T05:44:35.200Z,6.93
2024-02-19T05:47:21.208Z,6.28
2024-02-19T05:50:10.196Z,6.13
2024-02-19T05:52:55.570Z,6.55
2024-02-19T05:55:40.700Z,8.45
2024-02-19T05:58:26.040Z,7.78
2024-02-19T06:01:12.253Z,7.30
2024-02-19T06:03:57.407Z,6.40
2024-02-19T06:06:47.164Z,8.93
2024-02-19T06:09:32.321Z,7.80
2024-02-19T06:12:17.505Z,6.65
2024-02-19T06:15:03.480Z,6.20
2024-02-19T06:17:50.273Z,8.50
2024-02-19T06:20:37.500Z,7.95
2024-02-19T06:23:25.375Z,7.95
2024-02-19T06:26:13.201Z,9.18
2024-02-19T06:29:12.150Z,8.75
2024-02-19T06:32:04.322Z,7.60
2024-02-19T06:35:22.252Z,7.22
2024-02-19T06:38:07.730Z,7.63
2024-02-19T06:43:58.415Z,7.13
2024-02-19T06:46:48.522Z,7.75
2024-02-19T06:49:35.165Z,6.93
2024-02-19T06:52:33.206Z,6.55
2024-02-19T06:57:56.785Z,8.27
2024-02-19T07:00:13.091Z,6.80
2024-02-19T07:03:16.500Z,6.57
2024-02-19T07:06:03.784Z,7.53
2024-02-19T07:08:53.571Z,10.07
2024-02-19T07:12:05.541Z,9.30
2024-02-19T07:14:58.693Z,9.00
2024-02-19T07:17:47.150Z,17.85
2024-02-19T07:20:37.120Z,19.75
2024-02-19T07:23:42.260Z,19.10
2024-02-19T07:26:52.533Z,9.70
2024-02-19T07:29:46.186Z,8.55
2024-02-19T07:32:32.109Z,8.60
2024-02-19T07:35:17.566Z,6.65
2024-02-19T07:38:06.474Z,6.10
2024-02-19T07:40:59.789Z,4.97
2024-02-19T07:43:45.874Z,5.50
2024-02-19T07:46:37.958Z,4.60
2024-02-19T07:49:30.122Z,4.22
2024-02-19T07:52:19.510Z,4.65
2024-02-19T07:55:12.112Z,4.38
2024-02-19T07:58:05.094Z,5.03
2024-02-19T08:00:51.593Z,5.13
2024-02-19T08:03:36.857Z,4.07
2024-02-19T08:06:26.744Z,4.25
2024-02-19T08:09:11.978Z,2.90
2024-02-19T08:11:59.275Z,2.15
2024-02-19T08:14:46.991Z,4.38
2024-02-19T08:17:36.421Z,7.05
2024-02-19T08:20:38.194Z,5.72
2024-02-19T08:23:33.264Z,6.90
2024-02-19T08:26:46.849Z,2.25
2024-02-19T08:29:33.149Z,4.38
2024-02-19T08:32:35.305Z,8.90
2024-02-19T08:35:23.444Z,8.75
2024-02-19T08:38:18.801Z,6.88
2024-02-19T08:41:04.313Z,4.55
2024-02-19T08:43:52.655Z,4.40
2024-02-19T08:46:37.992Z,2.55
2024-02-19T08:49:24.946Z,4.00
2024-02-19T08:52:19.841Z,3.72
2024-02-19T08:55:16.387Z,3.72
2024-02-19T08:58:01.890Z,3.60
2024-02-19T09:01:19.632Z,4.07
2024-02-19T09:04:09.210Z,2.58
2024-02-19T09:07:14.979Z,2.63
2024-02-19T09:10:09.352Z,4.35
2024-02-19T09:16:30.793Z,5.00
2024-02-19T09:19:46.819Z,3.50
2024-02-19T09:22:35.944Z,2.30
2024-02-19T09:25:27.962Z,2.38
2024-02-19T09:28:16.478Z,2.35
2024-02-19T09:31:21.764Z,2.50
2024-02-19T09:34:10.382Z,2.60
2024-02-19T09:36:56.083Z,3.40
2024-02-19T09:40:05.379Z,2.60
2024-02-19T09:45:40.736Z,2.90
2024-02-19T09:48:26.845Z,2.88
2024-02-19T09:51:21.662Z,2.05
2024-02-19T09:54:23.454Z,2.97
2024-02-19T09:57:11.106Z,2.55
2024-02-19T10:00:05.676Z,5.60
2024-02-19T10:02:55.345Z,2.17
2024-02-19T10:05:48.526Z,2.42
2024-02-19T10:08:36.103Z,3.50
2024-02-19T10:11:21.210Z,2.30
2024-02-19T10:14:07.039Z,2.30
2024-02-19T10:16:52.820Z,3.58
2024-02-19T10:19:39.219Z,4.15
2024-02-19T10:22:25.237Z,4.45
2024-02-19T10:25:12.631Z,2.47
2024-02-19T10:27:57.722Z,3.40
2024-02-19T10:30:43.756Z,4.00
2024-02-19T10:33:28.616Z,4.55
2024-02-19T10:36:20.342Z,3.70
2024-02-19T10:39:06.157Z,3.65
2024-02-19T10:41:51.213Z,3.92
2024-02-19T10:44:36.565Z,3.83
2024-02-19T10:47:22.474Z,3.10
2024-02-19T10:50:09.130Z,2.92
2024-02-19T10:52:54.450Z,3.05
2024-02-19T10:55:52.996Z,3.85
2024-02-19T10:59:00.160Z,2.92
2024-02-19T11:01:48.683Z,3.38
2024-02-19T11:04:35.282Z,3.17
2024-02-19T11:07:22.115Z,3.08
2024-02-19T11:10:07.877Z,3.00
2024-02-19T11:12:53.972Z,3.63
2024-02-19T11:15:42.839Z,6.68
2024-02-19T11:18:30.676Z,3.45
2024-02-19T11:21:23.721Z,4.00
2024-02-19T11:24:09.473Z,4.10
2024-02-19T11:26:55.917Z,4.97
2024-02-19T11:29:47.485Z,3.35
2024-02-19T11:32:33.469Z,3.28
2024-02-19T11:35:18.299Z,2.38
2024-02-19T11:38:04.217Z,4.32
2024-02-19T11:40:50.812Z,3.15
2024-02-19T11:43:37.066Z,7.13
2024-02-19T11:46:23.037Z,4.55
2024-02-19T11:49:09.484Z,2.05
2024-02-19T11:52:04.997Z,3.75
2024-02-19T11:54:56.026Z,3.15
2024-02-19T11:57:43.651Z,2.53
2024-02-19T12:00:33.180Z,2.97
2024-02-19T12:03:18.322Z,2.67
2024-02-19T12:06:03.930Z,3.78
2024-02-19T12:08:49.764Z,3.13
2024-02-19T12:11:36.666Z,3.20
2024-02-19T12:14:21.912Z,3.85
2024-02-19T12:17:07.822Z,8.35
2024-02-19T12:19:57.036Z,3.15
2024-02-19T12:22:42.784Z,7.15
2024-02-19T12:25:27.693Z,10.68
2024-02-19T12:28:12.934Z,5.95
2024-02-19T12:30:57.706Z,4.78
2024-02-19T12:33:43.475Z,3.80
2024-02-19T12:36:28.701Z,3.72
2024-02-19T12:39:32.494Z,3.10
2024-02-19T12:42:17.930Z,3.42
2024-02-19T12:45:06.208Z,4.05
2024-02-19T12:47:52.956Z,3.50
2024-02-19T12:50:37.852Z,4.05
2024-02-19T12:53:22.608Z,4.50
2024-02-19T12:56:07.837Z,3.80
2024-02-19T12:58:52.446Z,4.57
2024-02-19T13:01:37.765Z,4.43
2024-02-19T13:04:26.250Z,5.05
2024-02-19T13:07:15.770Z,5.07
2024-02-19T13:10:01.000Z,5.13
2024-02-19T13:12:45.836Z,5.45
2024-02-19T13:15:30.732Z,3.53
2024-02-19T13:18:15.665Z,4.60
2024-02-19T13:21:00.638Z,4.15
2024-02-19T13:23:45.740Z,4.57
2024-02-19T13:26:30.579Z,5.82
2024-02-19T13:29:16.206Z,6.03
2024-02-19T13:32:01.400Z,4.20
2024-02-19T13:34:46.370Z,5.43
2024-02-19T13:37:31.342Z,4.97
2024-02-19T13:40:16.446Z,6.65
2024-02-19T13:43:01.869Z,7.40
2024-02-19T13:46:01.372Z,5.55
2024-02-19T13:48:58.405Z,5.05
2024-02-19T13:51:43.456Z,3.55
2024-02-19T13:54:28.872Z,5.57
2024-02-19T13:57:14.211Z,4.97
2024-02-19T13:59:59.848Z,4.85
2024-02-19T14:02:45.067Z,4.97
2024-02-19T14:05:31.629Z,7.13
2024-02-19T14:08:17.907Z,5.57
2024-02-19T14:11:02.983Z,7.82
2024-02-19T14:13:55.029Z,5.55
2024-02-19T14:16:46.388Z,4.95
2024-02-19T14:19:31.363Z,6.43
2024-02-19T14:22:16.347Z,8.77
2024-02-19T14:25:01.584Z,8.60
2024-02-19T14:27:47.141Z,7.00
2024-02-19T14:30:32.567Z,9.05
2024-02-19T14:33:17.658Z,6.03
2024-02-19T14:36:02.978Z,4.78
2024-02-19T14:38:48.232Z,5.47
2024-02-19T14:41:33.179Z,5.60
2024-02-19T14:44:17.938Z,6.43
2024-02-19T14:47:07.069Z,10.88
2024-02-19T14:49:52.647Z,12.07
2024-02-19T14:52:37.794Z,10.75
2024-02-19T14:55:22.630Z,9.80
2024-02-19T14:58:08.245Z,9.90
2024-02-19T15:00:53.518Z,9.07
2024-02-19T15:03:38.529Z,12.70
2024-02-19T15:06:23.540Z,11.18
2024-02-19T15:09:09.913Z,7.43
2024-02-19T15:11:54.752Z,9.60
2024-02-19T15:14:40.542Z,8.48
2024-02-19T15:17:26.352Z,9.60
2024-02-19T15:20:12.582Z,11.25
2024-02-19T15:22:58.184Z,6.40
2024-02-19T15:25:43.315Z,7.38
2024-02-19T15:28:28.450Z,6.07
2024-02-19T15:31:14.063Z,4.20
2024-02-19T15:33:59.418Z,6.47
2024-02-19T15:36:44.434Z,15.13
2024-02-19T15:39:31.101Z,6.53
2024-02-19T15:42:15.957Z,6.68
2024-02-19T15:45:00.824Z,8.52
2024-02-19T15:47:46.366Z,8.43
2024-02-19T15:50:32.953Z,7.05
2024-02-19T15:53:24.783Z,8.00
2024-02-19T15:56:14.008Z,5.93
2024-02-19T15:58:58.685Z,10.68
2024-02-19T16:01:45.249Z,13.82
2024-02-19T16:04:30.649Z,21.40
2024-02-19T16:07:15.790Z,14.20
2024-02-19T16:10:00.771Z,7.53
2024-02-19T16:15:32.520Z,5.20
2024-02-19T16:18:29.157Z,8.32
2024-02-19T16:21:41.399Z,8.82
2024-02-19T16:24:40.580Z,8.95
2024-02-19T16:27:36.077Z,10.95
2024-02-19T16:30:21.086Z,8.88
2024-02-19T16:35:51.449Z,7.75
2024-02-19T16:38:41.654Z,7.22
2024-02-19T16:41:26.665Z,9.82
2024-02-19T16:44:11.754Z,16.75
2024-02-19T16:49:44.127Z,21.45
2024-02-19T16:52:29.256Z,13.25
2024-02-19T16:57:59.509Z,16.20
2024-02-19T17:00:47.575Z,6.78
2024-02-19T17:03:33.046Z,6.63
2024-02-19T17:06:17.909Z,13.82
2024-02-19T17:11:50.719Z,12.63
2024-02-19T17:17:20.137Z,16.08
2024-02-19T17:20:05.936Z,13.00
2024-02-19T17:22:51.898Z,15.20
2024-02-19T17:25:37.260Z,16.48
2024-02-19T17:28:22.894Z,12.70
2024-02-19T17:31:08.835Z,9.80
2024-02-19T17:33:54.092Z,6.35
2024-02-19T17:39:26.684Z,6.93
2024-02-19T17:42:11.499Z,13.52
2024-02-19T17:44:56.815Z,15.70
2024-02-19T17:50:26.672Z,24.85
2024-02-19T17:53:12.275Z,45.78
2024-02-19T17:58:42.314Z,39.78
2024-02-19T18:01:27.497Z,23.77
2024-02-19T18:04:13.006Z,9.70
2024-02-19T18:07:00.787Z,10.90
2024-02-19T18:09:45.402Z,11.43
2024-02-19T18:12:30.490Z,14.60
2024-02-19T18:18:06.553Z,17.42
2024-02-19T18:20:52.219Z,14.30
2024-02-19T18:23:37.481Z,18.83
2024-02-19T18:26:24.553Z,19.98
2024-02-19T18:29:14.679Z,10.43
2024-02-19T18:32:01.071Z,10.85
2024-02-19T18:34:47.158Z,10.38
2024-02-19T18:37:32.307Z,19.40
2024-02-19T18:43:03.033Z,10.95
2024-02-19T18:45:48.183Z,12.38
2024-02-19T18:48:34.827Z,13.40
2024-02-19T18:51:19.568Z,8.93
2024-02-19T18:54:04.595Z,9.95
2024-02-19T18:59:37.388Z,11.77
2024-02-19T19:02:22.359Z,25.92
2024-02-19T19:05:07.622Z,36.75
2024-02-19T19:07:53.015Z,16.95
2024-02-19T19:10:37.929Z,21.52
2024-02-19T19:16:08.144Z,16.48
2024-02-19T19:21:38.395Z,16.27
2024-02-19T19:24:23.530Z,15.25
2024-02-19T19:29:54.088Z,12.60
2024-02-19T19:32:39.793Z,9.43
2024-02-19T19:35:27.182Z,7.90
2024-02-19T19:38:12.502Z,8.75
2024-02-19T19:40:57.671Z,6.70
2024-02-19T19:43:42.667Z,9.48
2024-02-19T19:46:27.845Z,8.10
2024-02-19T19:49:17.174Z,9.55
2024-02-19T19:52:02.025Z,8.55
2024-02-19T19:54:47.424Z,6.43
2024-02-19T19:57:32.440Z,7.72
2024-02-19T20:00:20.783Z,5.15
2024-02-19T20:03:06.062Z,8.10
2024-02-19T20:05:51.360Z,7.53
2024-02-19T20:08:36.339Z,6.43
2024-02-19T20:14:07.452Z,7.95
2024-02-19T20:19:37.481Z,7.50
2024-02-19T20:22:22.367Z,8.02
2024-02-19T20:27:54.323Z,6.72
2024-02-19T20:30:39.354Z,6.82
2024-02-19T20:33:24.442Z,6.57
2024-02-19T20:38:57.451Z,7.43
2024-02-19T20:41:43.336Z,7.50
2024-02-19T20:44:28.076Z,6.55
2024-02-19T20:47:13.703Z,11.95
2024-02-19T20:50:00.310Z,21.90
2024-02-19T20:52:46.352Z,20.23
2024-02-19T20:55:31.529Z,16.75
2024-02-19T21:01:02.584Z,15.02
2024-02-19T21:03:50.065Z,16.70
2024-02-19T21:06:35.509Z,17.08
2024-02-19T21:09:21.275Z,23.55
2024-02-19T21:12:07.376Z,20.13
2024-02-19T21:14:52.343Z,22.70
2024-02-19T21:17:37.312Z,21.95
2024-02-19T21:20:22.284Z,27.83
2024-02-19T21:25:52.381Z,19.17
2024-02-19T21:28:37.342Z,22.80
2024-02-19T21:31:22.208Z,23.35
2024-02-19T21:34:10.483Z,20.45
2024-02-19T21:36:58.127Z,20.80
2024-02-19T21:39:43.882Z,18.25
2024-02-19T21:42:29.804Z,17.42
2024-02-19T21:45:16.756Z,16.25
2024-02-19T21:48:01.800Z,17.77
2024-02-19T21:50:46.314Z,13.98
2024-02-19T21:53:31.478Z,17.70
2024-02-19T21:59:01.620Z,15.45
2024-02-19T22:01:46.608Z,16.55
2024-02-19T22:04:31.685Z,17.50
2024-02-19T22:07:16.253Z,15.80
2024-02-19T22:10:03.554Z,19.33
2024-02-19T22:12:48.990Z,14.23
2024-02-19T22:15:33.836Z,19.95
2024-02-19T22:18:19.605Z,16.40
2024-02-19T22:21:04.949Z,19.20
2024-02-19T22:23:50.021Z,17.38
2024-02-19T22:26:34.894Z,26.05
2024-02-19T22:29:19.851Z,18.48
2024-02-19T22:32:06.117Z,17.30
2024-02-19T22:34:51.185Z,17.52
2024-02-19T22:37:36.605Z,18.67
2024-02-19T22:40:21.551Z,17.13
2024-02-19T22:45:54.425Z,16.67
2024-02-19T22:48:39.338Z,15.70
2024-02-19T22:51:24.245Z,18.05
2024-02-19T22:54:12.241Z,17.55
2024-02-19T22:56:57.960Z,17.63
2024-02-19T22:59:43.919Z,17.42
2024-02-19T23:02:28.576Z,18.23
2024-02-19T23:05:14.471Z,17.55
2024-02-19T23:08:02.381Z,15.10
2024-02-19T23:10:47.172Z,17.38
2024-02-19T23:13:32.164Z,15.48
2024-02-19T23:19:01.995Z,15.98
2024-02-19T23:24:31.631Z,15.18
2024-02-19T23:27:16.779Z,16.20
2024-02-19T23:32:47.657Z,14.55
2024-02-19T23:35:33.674Z,16.88
2024-02-19T23:38:20.900Z,15.90
2024-02-19T23:41:06.380Z,17.02
2024-02-19T23:46:35.971Z,16.30
2024-02-19T23:49:21.063Z,17.63
2024-02-19T23:52:06.371Z,14.55
2024-02-19T23:57:38.033Z,14.52
